createdAt,value
2017-12-07T00:02:23.637Z,10.10
2017-12-07T00:04:52.061Z,10.00
2017-12-07T00:07:20.443Z,10.00
2017-12-07T00:09:48.979Z,10.10
2017-12-07T00:12:17.293Z,10.00
2017-12-07T00:14:45.554Z,10.00
2017-12-07T00:17:13.829Z,9.90
2017-12-07T00:19:42.097Z,10.20
2017-12-07T00:22:11.903Z,10.00
2017-12-07T00:24:40.345Z,9.90
2017-12-07T00:27:09.372Z,9.90
2017-12-07T00:29:37.672Z,9.90
2017-12-07T00:32:06.853Z,9.90
2017-12-07T00:34:35.118Z,9.90
2017-12-07T00:37:03.385Z,9.90
2017-12-07T00:39:32.467Z,9.80
2017-12-07T00:42:00.727Z,9.90
2017-12-07T00:44:28.974Z,9.90
2017-12-07T00:46:57.217Z,9.90
2017-12-07T00:49:27.279Z,9.60
2017-12-07T00:51:59.733Z,9.60
2017-12-07T00:54:33.549Z,9.60
2017-12-07T00:57:07.433Z,9.70
2017-12-07T00:59:35.678Z,9.70
2017-12-07T01:02:04.206Z,9.60
2017-12-07T01:04:33.622Z,9.70
2017-12-07T01:07:01.948Z,9.60
2017-12-07T01:09:30.189Z,9.50
2017-12-07T01:11:58.463Z,9.70
2017-12-07T01:14:28.406Z,9.70
2017-12-07T01:16:56.847Z,9.90
2017-12-07T01:19:25.328Z,9.50
2017-12-07T01:21:53.614Z,9.70
2017-12-07T01:24:22.704Z,9.60
2017-12-07T01:26:51.926Z,9.60
2017-12-07T01:29:20.927Z,9.80
2017-12-07T01:31:49.170Z,9.80
2017-12-07T01:34:17.425Z,9.80
2017-12-07T01:36:45.692Z,9.70
2017-12-07T01:39:15.688Z,9.50
2017-12-07T01:41:45.088Z,9.50
2017-12-07T01:44:13.344Z,9.30
2017-12-07T01:46:41.619Z,9.40
2017-12-07T01:49:10.645Z,9.40
2017-12-07T01:51:38.881Z,9.30
2017-12-07T01:54:07.150Z,9.50
2017-12-07T01:56:35.551Z,9.60
2017-12-07T01:59:04.545Z,9.50
2017-12-07T02:01:32.807Z,9.70
2017-12-07T02:04:01.096Z,9.70
2017-12-07T02:06:29.351Z,9.70
2017-12-07T02:08:57.617Z,9.70
2017-12-07T02:11:25.898Z,9.80
2017-12-07T02:13:54.326Z,9.60
2017-12-07T02:16:22.604Z,9.70
2017-12-07T02:18:50.896Z,9.70
2017-12-07T02:21:19.135Z,9.60
2017-12-07T02:23:47.426Z,9.20
2017-12-07T02:26:15.668Z,9.40
2017-12-07T02:28:43.936Z,9.40
2017-12-07T02:31:13.043Z,9.30
2017-12-07T02:33:42.064Z,9.30
2017-12-07T02:36:10.355Z,9.40
2017-12-07T02:38:38.631Z,9.60
2017-12-07T02:41:06.905Z,9.30
2017-12-07T02:43:35.176Z,9.30
2017-12-07T02:46:03.603Z,9.20
2017-12-07T02:48:31.847Z,9.50
2017-12-07T02:51:00.099Z,9.50
2017-12-07T02:53:28.405Z,9.30
2017-12-07T02:55:57.461Z,9.30
2017-12-07T02:58:26.904Z,9.00
2017-12-07T03:00:56.132Z,9.20
2017-12-07T03:03:26.245Z,9.20
2017-12-07T03:05:54.469Z,9.10
2017-12-07T03:08:22.705Z,9.00
2017-12-07T03:10:52.628Z,9.00
2017-12-07T03:13:21.654Z,9.20
2017-12-07T03:15:49.901Z,9.10
2017-12-07T03:18:18.213Z,9.20
2017-12-07T03:20:46.495Z,9.10
2017-12-07T03:23:14.791Z,9.10
2017-12-07T03:25:43.086Z,8.90
2017-12-07T03:28:12.141Z,9.00
2017-12-07T03:30:40.545Z,9.10
2017-12-07T03:33:08.814Z,8.70
2017-12-07T03:35:37.140Z,8.90
2017-12-07T03:38:05.599Z,8.60
2017-12-07T03:40:33.874Z,8.70
2017-12-07T03:43:02.358Z,8.70
2017-12-07T03:45:30.588Z,9.00
2017-12-07T03:47:58.905Z,8.70
2017-12-07T03:50:27.192Z,8.50
2017-12-07T03:52:55.662Z,8.60
2017-12-07T03:55:24.068Z,8.90
2017-12-07T03:57:54.059Z,8.70
2017-12-07T04:00:22.349Z,8.70
2017-12-07T04:02:51.429Z,8.70
2017-12-07T04:05:19.648Z,8.80
2017-12-07T04:07:48.940Z,8.60
2017-12-07T04:10:17.245Z,8.90
2017-12-07T04:12:45.539Z,8.60
2017-12-07T04:15:13.881Z,8.70
2017-12-07T04:17:42.144Z,8.50
2017-12-07T04:20:10.406Z,8.60
2017-12-07T04:22:38.699Z,8.80
2017-12-07T04:25:06.989Z,8.80
2017-12-07T04:27:35.268Z,8.70
2017-12-07T04:30:03.519Z,8.70
2017-12-07T04:32:31.788Z,8.80
2017-12-07T04:35:00.086Z,8.50
2017-12-07T04:37:28.521Z,8.60
2017-12-07T04:39:57.549Z,8.40
2017-12-07T04:42:25.902Z,8.70
2017-12-07T04:44:55.686Z,8.70
2017-12-07T04:47:23.953Z,8.60
2017-12-07T04:49:52.201Z,8.70
2017-12-07T04:52:20.475Z,8.60
2017-12-07T04:54:49.885Z,8.70
2017-12-07T04:57:18.938Z,8.80
2017-12-07T04:59:47.954Z,8.70
2017-12-07T05:02:16.235Z,8.70
2017-12-07T05:04:44.717Z,8.60
2017-12-07T05:07:12.997Z,8.70
2017-12-07T05:09:41.318Z,8.70
2017-12-07T05:12:09.568Z,8.40
2017-12-07T05:14:37.854Z,8.40
2017-12-07T05:17:06.112Z,8.60
2017-12-07T05:19:34.382Z,8.40
2017-12-07T05:22:02.637Z,8.40
2017-12-07T05:24:30.903Z,8.50
2017-12-07T05:27:00.869Z,8.70
2017-12-07T05:29:29.648Z,8.40
2017-12-07T05:31:57.916Z,8.50
2017-12-07T05:34:26.172Z,8.60
2017-12-07T05:36:55.245Z,8.50
2017-12-07T05:39:24.366Z,8.60
2017-12-07T05:41:52.636Z,8.70
2017-12-07T05:44:20.935Z,8.30
2017-12-07T05:46:50.198Z,8.20
2017-12-07T05:49:18.897Z,8.20
2017-12-07T05:51:47.319Z,8.40
2017-12-07T05:54:15.592Z,8.60
2017-12-07T05:56:43.833Z,8.40
2017-12-07T05:59:12.867Z,8.50
2017-12-07T06:01:41.245Z,8.30
2017-12-07T06:04:09.532Z,8.40
2017-12-07T06:06:37.804Z,8.30
2017-12-07T06:09:06.285Z,8.50
2017-12-07T06:11:36.947Z,8.30
2017-12-07T06:14:06.000Z,8.30
2017-12-07T06:16:34.268Z,8.60
2017-12-07T06:19:03.385Z,8.50
2017-12-07T06:21:31.812Z,8.70
2017-12-07T06:24:00.836Z,8.30
2017-12-07T06:26:30.388Z,8.30
2017-12-07T06:28:58.878Z,8.30
2017-12-07T06:31:27.148Z,8.60
2017-12-07T06:33:55.639Z,8.50
2017-12-07T06:36:24.521Z,8.30
2017-12-07T06:38:52.769Z,8.30
2017-12-07T06:41:21.038Z,8.30
2017-12-07T06:43:49.326Z,8.30
2017-12-07T06:46:19.106Z,8.40
2017-12-07T06:48:47.740Z,8.40
2017-12-07T06:51:16.005Z,8.40
2017-12-07T06:53:44.420Z,8.10
2017-12-07T06:56:13.480Z,8.10
2017-12-07T06:58:41.750Z,8.20
2017-12-07T07:01:11.507Z,8.10
2017-12-07T07:03:39.766Z,8.00
2017-12-07T07:06:09.790Z,7.90
2017-12-07T07:08:38.037Z,8.00
2017-12-07T07:11:06.336Z,7.80
2017-12-07T07:13:34.728Z,8.00
2017-12-07T07:16:03.018Z,8.00
2017-12-07T07:18:31.380Z,7.90
2017-12-07T07:21:00.689Z,8.10
2017-12-07T07:23:28.984Z,7.80
2017-12-07T07:25:57.285Z,7.80
2017-12-07T07:28:25.568Z,8.00
2017-12-07T07:30:53.821Z,8.10
2017-12-07T07:33:22.109Z,8.00
2017-12-07T07:35:50.384Z,7.90
2017-12-07T07:38:18.662Z,8.00
2017-12-07T07:40:46.936Z,7.80
2017-12-07T07:43:15.200Z,7.80
2017-12-07T07:45:45.680Z,7.70
2017-12-07T07:48:13.927Z,7.80
2017-12-07T07:50:42.172Z,8.00
2017-12-07T07:53:10.481Z,8.00
2017-12-07T07:55:38.745Z,8.10
2017-12-07T07:58:07.024Z,8.00
2017-12-07T08:00:35.333Z,8.00
2017-12-07T08:03:04.409Z,8.00
2017-12-07T08:05:32.701Z,8.10
2017-12-07T08:08:00.991Z,7.90
2017-12-07T08:10:30.839Z,8.10
2017-12-07T08:12:59.092Z,7.90
2017-12-07T08:15:27.342Z,8.10
2017-12-07T08:17:55.660Z,8.10
2017-12-07T08:20:24.115Z,7.80
2017-12-07T08:22:52.403Z,7.80
2017-12-07T08:25:21.493Z,7.80
2017-12-07T08:27:49.729Z,7.80
2017-12-07T08:30:18.047Z,7.60
2017-12-07T08:32:46.337Z,7.60
2017-12-07T08:35:14.650Z,7.50
2017-12-07T08:37:43.902Z,7.50
2017-12-07T08:40:14.625Z,7.70
2017-12-07T08:42:43.055Z,7.70
2017-12-07T08:45:11.477Z,7.30
2017-12-07T08:47:39.816Z,7.40
2017-12-07T08:50:08.124Z,7.50
2017-12-07T08:52:36.633Z,7.30
2017-12-07T08:55:05.102Z,7.30
2017-12-07T08:57:34.344Z,7.10
2017-12-07T09:00:02.628Z,7.20
2017-12-07T09:02:30.894Z,7.10
2017-12-07T09:04:59.195Z,7.50
2017-12-07T09:07:27.713Z,7.30
2017-12-07T09:09:55.970Z,7.10
2017-12-07T09:12:24.276Z,7.40
2017-12-07T09:14:53.340Z,7.40
2017-12-07T09:17:23.121Z,7.10
2017-12-07T09:19:52.372Z,7.30
2017-12-07T09:22:20.679Z,7.30
2017-12-07T09:24:49.743Z,7.40
2017-12-07T09:27:17.977Z,7.40
2017-12-07T09:29:46.501Z,7.20
2017-12-07T09:32:14.778Z,7.20
2017-12-07T09:34:43.086Z,7.10
2017-12-07T09:37:11.337Z,7.20
2017-12-07T09:39:39.636Z,7.00
2017-12-07T09:42:07.885Z,7.20
2017-12-07T09:44:36.992Z,7.00
2017-12-07T09:47:05.260Z,7.00
2017-12-07T09:49:33.524Z,7.00
2017-12-07T09:52:02.578Z,7.20
2017-12-07T09:54:30.901Z,7.10
2017-12-07T09:56:59.291Z,7.20
2017-12-07T09:59:27.745Z,7.10
2017-12-07T10:01:55.992Z,7.20
2017-12-07T10:04:26.018Z,7.40
2017-12-07T10:06:54.434Z,7.40
2017-12-07T10:09:22.892Z,7.30
2017-12-07T10:11:51.152Z,7.20
2017-12-07T10:14:19.570Z,7.30
2017-12-07T10:16:47.869Z,7.30
2017-12-07T10:19:17.760Z,7.00
2017-12-07T10:21:46.072Z,7.00
2017-12-07T10:24:14.335Z,7.10
2017-12-07T10:26:43.330Z,7.20
2017-12-07T10:29:11.655Z,7.20
2017-12-07T10:31:40.662Z,7.10
2017-12-07T10:34:08.927Z,7.00
2017-12-07T10:36:37.226Z,7.10
2017-12-07T10:39:05.507Z,7.30
2017-12-07T10:41:33.798Z,7.00
2017-12-07T10:44:02.846Z,7.20
2017-12-07T10:46:32.097Z,7.20
2017-12-07T10:49:00.385Z,7.10
2017-12-07T10:51:28.666Z,7.30
2017-12-07T10:53:58.677Z,7.40
2017-12-07T10:56:27.033Z,7.40
2017-12-07T10:58:55.312Z,7.30
2017-12-07T11:01:23.604Z,7.30
2017-12-07T11:03:51.876Z,7.40
2017-12-07T11:06:21.048Z,7.40
2017-12-07T11:08:50.100Z,7.10
2017-12-07T11:11:18.396Z,7.40
2017-12-07T11:13:47.582Z,7.40
2017-12-07T11:16:15.849Z,7.40
2017-12-07T11:18:46.739Z,7.40
2017-12-07T11:21:15.040Z,7.40
2017-12-07T11:23:43.551Z,7.40
2017-12-07T11:26:11.806Z,7.40
2017-12-07T11:28:40.107Z,7.30
2017-12-07T11:31:08.377Z,7.40
2017-12-07T11:33:36.821Z,7.40
2017-12-07T11:36:05.840Z,7.40
2017-12-07T11:38:34.147Z,7.40
2017-12-07T11:41:02.443Z,7.40
2017-12-07T11:43:30.748Z,7.40
2017-12-07T11:45:59.033Z,7.70
2017-12-07T11:48:28.001Z,7.40
2017-12-07T11:50:56.240Z,7.50
2017-12-07T11:53:24.511Z,7.70
2017-12-07T11:55:52.892Z,7.70
2017-12-07T11:58:21.307Z,7.60
2017-12-07T12:00:51.372Z,7.40
2017-12-07T12:03:19.677Z,7.70
2017-12-07T12:05:48.009Z,7.50
2017-12-07T12:08:17.293Z,7.70
2017-12-07T12:10:47.163Z,7.80
2017-12-07T12:13:15.495Z,7.90
2017-12-07T12:15:44.412Z,7.80
2017-12-07T12:18:12.672Z,8.00
2017-12-07T12:20:40.978Z,8.10
2017-12-07T12:23:09.262Z,8.00
2017-12-07T12:25:37.509Z,8.10
2017-12-07T12:28:05.808Z,8.20
2017-12-07T12:30:34.169Z,8.20
2017-12-07T12:33:02.396Z,8.00
2017-12-07T12:35:30.872Z,7.90
2017-12-07T12:37:59.170Z,8.20
2017-12-07T12:40:28.193Z,8.00
2017-12-07T12:42:56.692Z,8.40
2017-12-07T12:45:25.048Z,8.20
2017-12-07T12:47:53.348Z,8.40
2017-12-07T12:50:21.708Z,8.40
2017-12-07T12:52:49.967Z,8.00
2017-12-07T12:55:18.708Z,7.90
2017-12-07T12:57:47.015Z,8.40
2017-12-07T13:00:16.924Z,8.30
2017-12-07T13:02:46.733Z,8.40
2017-12-07T13:05:15.045Z,8.40
2017-12-07T13:07:43.696Z,8.30
2017-12-07T13:10:11.962Z,8.10
2017-12-07T13:12:41.016Z,8.60
2017-12-07T13:15:09.273Z,8.40
2017-12-07T13:17:37.578Z,8.30
2017-12-07T13:20:05.862Z,8.60
2017-12-07T13:22:34.145Z,8.40
2017-12-07T13:25:02.405Z,8.30
2017-12-07T13:27:30.694Z,8.30
2017-12-07T13:29:59.017Z,8.40
2017-12-07T13:32:27.413Z,8.30
2017-12-07T13:34:55.709Z,8.70
2017-12-07T13:37:24.034Z,8.60
2017-12-07T13:39:52.324Z,8.50
2017-12-07T13:42:20.577Z,8.50
2017-12-07T13:44:48.865Z,8.30
2017-12-07T13:47:17.351Z,8.20
2017-12-07T13:49:45.654Z,8.30
2017-12-07T13:52:13.913Z,8.20
2017-12-07T13:54:42.945Z,8.20
2017-12-07T13:57:12.290Z,8.60
2017-12-07T13:59:40.535Z,8.20
2017-12-07T14:02:08.968Z,8.30
2017-12-07T14:04:38.090Z,8.10
2017-12-07T14:07:06.381Z,7.90
2017-12-07T14:09:37.203Z,8.10
2017-12-07T14:12:06.282Z,8.10
2017-12-07T14:14:35.484Z,8.30
2017-12-07T14:17:05.486Z,8.20
2017-12-07T14:19:33.771Z,8.10
2017-12-07T14:22:02.748Z,8.20
2017-12-07T14:24:31.794Z,8.40
2017-12-07T14:27:00.044Z,8.20
2017-12-07T14:29:28.330Z,8.20
2017-12-07T14:31:56.632Z,8.40
2017-12-07T14:34:24.999Z,8.30
2017-12-07T14:36:54.490Z,8.40
2017-12-07T14:39:22.769Z,8.10
2017-12-07T14:41:51.078Z,8.30
2017-12-07T14:44:19.437Z,8.40
2017-12-07T14:46:47.853Z,8.20
2017-12-07T14:49:16.106Z,8.10
2017-12-07T14:51:45.434Z,7.90
2017-12-07T14:54:16.153Z,7.90
2017-12-07T14:56:44.430Z,8.30
2017-12-07T14:59:12.772Z,8.30
2017-12-07T15:01:41.317Z,8.10
2017-12-07T15:04:09.809Z,8.40
2017-12-07T15:06:39.797Z,8.30
2017-12-07T15:09:08.142Z,8.20
2017-12-07T15:11:36.840Z,8.30
2017-12-07T15:14:05.992Z,8.30
2017-12-07T15:16:34.284Z,8.30
2017-12-07T15:19:02.590Z,8.30
2017-12-07T15:21:30.891Z,8.20
2017-12-07T15:24:00.013Z,8.20
2017-12-07T15:26:28.275Z,8.30
2017-12-07T15:28:56.744Z,8.10
2017-12-07T15:31:25.027Z,8.20
2017-12-07T15:33:53.369Z,8.20
2017-12-07T15:36:22.615Z,8.20
2017-12-07T15:38:50.898Z,8.30
2017-12-07T15:41:19.175Z,8.20
2017-12-07T15:43:48.026Z,8.20
2017-12-07T15:46:17.138Z,8.10
2017-12-07T15:48:46.903Z,8.20
2017-12-07T15:51:16.105Z,8.10
2017-12-07T15:53:44.402Z,8.10
2017-12-07T15:56:12.732Z,8.10
2017-12-07T15:58:41.066Z,8.20
2017-12-07T16:01:09.361Z,8.10
2017-12-07T16:03:37.657Z,8.20
2017-12-07T16:06:06.712Z,8.10
2017-12-07T16:08:34.994Z,8.60
2017-12-07T16:11:03.388Z,8.20
2017-12-07T16:13:31.680Z,8.20
2017-12-07T16:16:00.008Z,8.20
2017-12-07T16:18:28.419Z,8.10
2017-12-07T16:20:56.706Z,8.30
2017-12-07T16:23:24.989Z,8.20
2017-12-07T16:25:53.472Z,8.30
2017-12-07T16:28:21.733Z,8.10
2017-12-07T16:30:50.056Z,8.40
2017-12-07T16:33:19.311Z,8.10
2017-12-07T16:35:47.574Z,8.20
2017-12-07T16:38:16.471Z,8.20
2017-12-07T16:40:45.770Z,8.40
2017-12-07T16:43:14.603Z,8.50
2017-12-07T16:45:42.914Z,8.40
2017-12-07T16:48:11.163Z,8.50
2017-12-07T16:50:39.426Z,8.70
2017-12-07T16:53:08.685Z,8.60
2017-12-07T16:55:37.062Z,8.50
2017-12-07T16:58:06.384Z,8.40
2017-12-07T17:00:36.689Z,8.60
2017-12-07T17:03:04.985Z,8.40
2017-12-07T17:05:34.124Z,8.40
2017-12-07T17:08:02.388Z,8.60
2017-12-07T17:10:30.713Z,8.60
2017-12-07T17:12:59.006Z,8.40
2017-12-07T17:15:27.283Z,8.50
2017-12-07T17:18:01.167Z,8.70
2017-12-07T17:20:30.020Z,8.70
2017-12-07T17:22:59.256Z,8.50
2017-12-07T17:25:27.508Z,8.50
2017-12-07T17:27:56.770Z,8.70
2017-12-07T17:30:25.814Z,8.60
2017-12-07T17:32:55.046Z,8.70
2017-12-07T17:35:24.092Z,9.00
2017-12-07T17:37:53.305Z,8.90
2017-12-07T17:40:21.608Z,9.00
2017-12-07T17:42:49.932Z,9.00
2017-12-07T17:45:18.194Z,8.90
2017-12-07T17:47:47.476Z,8.80
2017-12-07T17:50:15.813Z,8.90
2017-12-07T17:52:44.078Z,8.80
2017-12-07T17:55:13.309Z,8.80
2017-12-07T17:57:41.587Z,8.60
2017-12-07T18:00:10.685Z,8.60
2017-12-07T18:02:39.785Z,8.50
2017-12-07T18:05:08.058Z,8.60
2017-12-07T18:07:36.311Z,8.90
2017-12-07T18:10:04.626Z,8.60
2017-12-07T18:12:32.935Z,8.80
2017-12-07T18:15:01.543Z,8.90
2017-12-07T18:17:30.920Z,9.00
2017-12-07T18:19:59.208Z,8.90
2017-12-07T18:22:27.668Z,8.80
2017-12-07T18:24:55.943Z,8.80
2017-12-07T18:27:25.067Z,8.80
2017-12-07T18:29:53.312Z,8.80
2017-12-07T18:32:21.624Z,8.70
2017-12-07T18:34:50.051Z,8.80
2017-12-07T18:37:18.329Z,8.80
2017-12-07T18:39:46.640Z,9.00
2017-12-07T18:42:15.065Z,8.90
2017-12-07T18:44:43.546Z,8.80
2017-12-07T18:47:11.802Z,8.80
2017-12-07T18:49:40.109Z,9.00
2017-12-07T18:52:08.638Z,9.00
2017-12-07T18:54:36.907Z,8.90
2017-12-07T18:57:05.912Z,8.80
2017-12-07T18:59:34.190Z,8.80
2017-12-07T19:02:02.575Z,8.90
2017-12-07T19:04:31.637Z,8.80
2017-12-07T19:06:59.903Z,8.80
2017-12-07T19:09:28.218Z,8.80
2017-12-07T19:11:56.483Z,8.90
2017-12-07T19:14:25.488Z,9.00
2017-12-07T19:16:53.792Z,9.20
2017-12-07T19:19:22.027Z,9.30
2017-12-07T19:21:50.266Z,9.30
2017-12-07T19:24:19.306Z,9.20
2017-12-07T19:26:47.591Z,9.20
2017-12-07T19:29:15.864Z,9.30
2017-12-07T19:31:44.145Z,9.00
2017-12-07T19:34:12.456Z,9.30
2017-12-07T19:36:41.509Z,9.60
2017-12-07T19:39:09.819Z,9.60
2017-12-07T19:41:38.405Z,9.60
2017-12-07T19:44:07.419Z,9.90
2017-12-07T19:46:36.433Z,9.90
2017-12-07T19:49:04.721Z,9.80
2017-12-07T19:51:34.847Z,9.80
2017-12-07T19:54:03.087Z,9.60
2017-12-07T19:56:35.409Z,9.70
2017-12-07T19:59:03.716Z,9.80
2017-12-07T20:01:32.017Z,9.70
2017-12-07T20:04:00.267Z,9.60
2017-12-07T20:06:28.541Z,9.60
2017-12-07T20:08:56.788Z,9.50
2017-12-07T20:11:25.867Z,9.70
2017-12-07T20:13:54.920Z,9.60
2017-12-07T20:16:23.146Z,9.60
2017-12-07T20:18:51.421Z,9.70
2017-12-07T20:21:20.508Z,9.60
2017-12-07T20:23:48.764Z,9.70
2017-12-07T20:26:18.008Z,9.90
2017-12-07T20:28:46.268Z,9.90
2017-12-07T20:31:14.563Z,10.00
2017-12-07T20:33:43.177Z,10.00
2017-12-07T20:36:12.161Z,9.70
2017-12-07T20:38:41.192Z,10.00
2017-12-07T20:41:09.473Z,9.90
2017-12-07T20:43:37.743Z,9.90
2017-12-07T20:46:06.025Z,9.90
2017-12-07T20:48:34.921Z,9.80
2017-12-07T20:51:03.154Z,9.90
2017-12-07T20:53:31.444Z,9.70
2017-12-07T20:55:59.686Z,9.80
2017-12-07T20:58:29.010Z,9.80
2017-12-07T21:00:57.285Z,10.20
2017-12-07T21:03:25.556Z,10.30
2017-12-07T21:05:53.940Z,10.20
2017-12-07T21:08:23.003Z,10.20
2017-12-07T21:10:52.337Z,10.20
2017-12-07T21:13:20.620Z,10.20
2017-12-07T21:15:49.772Z,10.00
2017-12-07T21:18:18.015Z,10.30
2017-12-07T21:20:46.377Z,10.30
2017-12-07T21:23:14.692Z,10.00
2017-12-07T21:25:43.157Z,9.90
2017-12-07T21:28:11.409Z,9.80
2017-12-07T21:30:39.709Z,9.90
2017-12-07T21:33:08.012Z,10.20
2017-12-07T21:35:36.258Z,9.90
2017-12-07T21:38:04.534Z,10.20
2017-12-07T21:40:33.520Z,10.10
2017-12-07T21:43:01.790Z,10.10
2017-12-07T21:45:30.844Z,10.00
2017-12-07T21:47:59.873Z,9.90
2017-12-07T21:50:28.187Z,9.90
2017-12-07T21:52:56.468Z,9.80
2017-12-07T21:55:24.717Z,9.80
2017-12-07T21:57:52.965Z,9.90
2017-12-07T22:00:21.264Z,9.90
2017-12-07T22:02:53.613Z,9.80
2017-12-07T22:05:21.944Z,9.90
2017-12-07T22:07:51.761Z,9.90
2017-12-07T22:10:20.257Z,10.00
2017-12-07T22:12:48.542Z,9.80
2017-12-07T22:15:16.825Z,9.90
2017-12-07T22:17:45.134Z,9.60
2017-12-07T22:20:13.392Z,9.70
2017-12-07T22:22:41.864Z,9.50
2017-12-07T22:25:10.145Z,9.60
2017-12-07T22:27:39.907Z,9.80
2017-12-07T22:30:08.172Z,9.90
2017-12-07T22:32:36.455Z,9.50
2017-12-07T22:35:04.716Z,9.80
2017-12-07T22:37:34.084Z,9.90
2017-12-07T22:40:03.283Z,9.90
2017-12-07T22:42:32.274Z,9.90
2017-12-07T22:45:00.543Z,9.90
2017-12-07T22:47:29.721Z,9.90
2017-12-07T22:49:58.031Z,9.90
2017-12-07T22:52:26.261Z,9.90
2017-12-07T22:54:54.600Z,10.00
2017-12-07T22:57:23.024Z,9.90
2017-12-07T22:59:51.381Z,9.90
2017-12-07T23:02:19.689Z,9.90
2017-12-07T23:04:47.968Z,10.00
2017-12-07T23:07:17.031Z,10.00
2017-12-07T23:09:45.978Z,10.00
2017-12-07T23:12:15.994Z,9.90
2017-12-07T23:14:44.234Z,10.00
2017-12-07T23:17:12.527Z,9.80
2017-12-07T23:19:40.809Z,10.00
2017-12-07T23:22:09.092Z,9.90
2017-12-07T23:24:37.409Z,10.00
2017-12-07T23:27:05.649Z,10.10
2017-12-07T23:29:33.929Z,10.20
2017-12-07T23:32:03.845Z,10.30
2017-12-07T23:34:32.110Z,10.10
2017-12-07T23:37:00.396Z,10.20
2017-12-07T23:39:28.693Z,10.00
2017-12-07T23:41:57.770Z,9.90
2017-12-07T23:44:27.557Z,9.90
2017-12-07T23:46:55.812Z,9.80
2017-12-07T23:49:24.089Z,9.90
2017-12-07T23:51:52.406Z,10.00
2017-12-07T23:54:20.648Z,10.00
2017-12-07T23:56:48.889Z,9.90
2017-12-07T23:59:17.180Z,9.80
